createdAt,value
2018-09-05T00:00:26.021Z,9.27
2018-09-05T00:02:57.389Z,11.47
2018-09-05T00:05:29.343Z,11.07
2018-09-05T00:08:01.680Z,11.93
2018-09-05T00:10:33.447Z,9.07
2018-09-05T00:13:05.301Z,7.80
2018-09-05T00:15:37.100Z,7.70
2018-09-05T00:18:08.381Z,8.83
2018-09-05T00:20:41.941Z,8.07
2018-09-05T00:23:13.413Z,7.50
2018-09-05T00:25:45.551Z,7.37
2018-09-05T00:28:18.012Z,7.07
2018-09-05T00:30:49.317Z,6.93
2018-09-05T00:33:21.240Z,8.60
2018-09-05T00:35:53.462Z,7.53
2018-09-05T00:38:24.589Z,7.63
2018-09-05T00:40:55.418Z,9.67
2018-09-05T00:43:26.216Z,9.37
2018-09-05T00:45:56.809Z,8.63
2018-09-05T00:48:29.061Z,9.87
2018-09-05T00:51:01.244Z,9.30
2018-09-05T00:53:33.077Z,8.80
2018-09-05T00:56:05.558Z,9.93
2018-09-05T00:58:37.648Z,10.47
2018-09-05T01:01:08.268Z,9.57
2018-09-05T01:03:38.953Z,8.10
2018-09-05T01:06:10.896Z,7.93
2018-09-05T01:08:42.242Z,9.87
2018-09-05T01:11:13.492Z,8.17
2018-09-05T01:13:43.962Z,8.13
2018-09-05T01:16:16.513Z,7.30
2018-09-05T01:18:47.136Z,7.27
2018-09-05T01:21:18.349Z,7.63
2018-09-05T01:23:49.184Z,7.47
2018-09-05T01:26:20.060Z,6.67
2018-09-05T01:28:50.813Z,6.53
2018-09-05T01:31:22.398Z,8.00
2018-09-05T01:33:54.030Z,6.93
2018-09-05T01:36:27.232Z,8.23
2018-09-05T01:39:01.085Z,7.03
2018-09-05T01:41:32.949Z,7.80
2018-09-05T01:44:04.455Z,8.37
2018-09-05T01:46:36.821Z,12.77
2018-09-05T01:49:08.145Z,11.60
2018-09-05T01:51:40.372Z,6.30
2018-09-05T01:54:12.274Z,5.30
2018-09-05T01:56:44.209Z,4.97
2018-09-05T01:59:15.989Z,8.37
2018-09-05T02:01:47.239Z,16.90
2018-09-05T02:04:19.666Z,16.97
2018-09-05T02:06:50.713Z,9.60
2018-09-05T02:09:22.940Z,6.77
2018-09-05T02:11:54.522Z,12.07
2018-09-05T02:14:25.885Z,22.17
2018-09-05T02:16:56.723Z,9.73
2018-09-05T02:19:28.416Z,10.03
2018-09-05T02:22:03.475Z,9.07
2018-09-05T02:24:35.822Z,89.87
2018-09-05T02:27:08.873Z,141.50
2018-09-05T02:29:39.953Z,228.37
2018-09-05T02:32:10.593Z,216.63
2018-09-05T02:34:41.505Z,277.33
2018-09-05T02:37:14.142Z,216.73
2018-09-05T02:39:45.454Z,146.43
2018-09-05T02:42:16.861Z,136.50
2018-09-05T02:44:47.918Z,174.03
2018-09-05T02:47:18.879Z,103.67
2018-09-05T02:49:50.615Z,55.33
2018-09-05T02:52:22.002Z,79.40
2018-09-05T02:54:54.141Z,66.07
2018-09-05T02:57:25.143Z,53.97
2018-09-05T02:59:58.269Z,85.53
2018-09-05T03:02:29.967Z,47.13
2018-09-05T03:05:01.892Z,47.80
2018-09-05T03:07:33.275Z,34.17
2018-09-05T03:10:05.463Z,15.00
2018-09-05T03:12:36.781Z,51.57
2018-09-05T03:15:08.394Z,38.53
2018-09-05T03:17:39.952Z,25.33
2018-09-05T03:20:13.327Z,33.73
2018-09-05T03:22:44.282Z,20.83
2018-09-05T03:25:16.935Z,16.53
2018-09-05T03:27:53.093Z,14.90
2018-09-05T03:30:23.871Z,48.97
2018-09-05T03:32:56.606Z,30.67
2018-09-05T03:35:28.137Z,38.47
2018-09-05T03:37:59.350Z,25.83
2018-09-05T03:40:30.766Z,52.83
2018-09-05T03:43:02.744Z,60.60
2018-09-05T03:45:35.532Z,46.57
2018-09-05T03:48:06.721Z,34.63
2018-09-05T03:50:38.627Z,48.57
2018-09-05T03:53:10.734Z,45.83
2018-09-05T03:55:42.024Z,57.13
2018-09-05T03:58:13.474Z,61.10
2018-09-05T04:00:45.925Z,56.53
2018-09-05T04:03:18.471Z,36.73
2018-09-05T04:05:50.387Z,40.97
2018-09-05T04:08:22.489Z,56.57
2018-09-05T04:10:54.050Z,70.43
2018-09-05T04:13:25.470Z,55.43
2018-09-05T04:15:57.422Z,64.93
2018-09-05T04:18:29.593Z,93.97
2018-09-05T04:21:01.144Z,79.93
2018-09-05T04:23:38.222Z,65.73
2018-09-05T04:26:09.358Z,68.80
2018-09-05T04:28:41.307Z,86.07
2018-09-05T04:31:14.118Z,49.23
2018-09-05T04:33:45.951Z,35.07
2018-09-05T04:36:18.641Z,12.23
2018-09-05T04:38:49.833Z,70.37
2018-09-05T04:41:21.073Z,63.07
2018-09-05T04:43:52.573Z,93.63
2018-09-05T04:46:24.225Z,85.63
2018-09-05T04:48:55.567Z,69.30
2018-09-05T04:51:27.481Z,71.33
2018-09-05T04:53:58.162Z,65.97
2018-09-05T04:56:30.005Z,52.67
2018-09-05T04:59:02.127Z,33.17
2018-09-05T05:01:33.015Z,69.97
2018-09-05T05:04:04.413Z,77.03
2018-09-05T05:06:35.751Z,60.93
2018-09-05T05:09:12.645Z,95.87
2018-09-05T05:11:44.325Z,56.77
2018-09-05T05:14:17.119Z,69.43
2018-09-05T05:16:48.575Z,69.93
2018-09-05T05:19:19.924Z,52.57
2018-09-05T05:21:52.368Z,73.17
2018-09-05T05:24:24.432Z,60.97
2018-09-05T05:26:57.235Z,52.27
2018-09-05T05:29:29.762Z,38.63
2018-09-05T05:32:01.957Z,53.23
2018-09-05T05:34:33.982Z,60.10
2018-09-05T05:37:06.646Z,50.47
2018-09-05T05:39:38.972Z,175.90
2018-09-05T05:42:10.029Z,76.10
2018-09-05T05:44:40.776Z,78.17
2018-09-05T05:47:13.653Z,84.93
2018-09-05T05:49:44.041Z,78.60
2018-09-05T05:52:14.655Z,50.73
2018-09-05T05:54:45.354Z,22.70
2018-09-05T05:57:17.287Z,15.07
2018-09-05T05:59:47.717Z,27.93
2018-09-05T06:02:18.249Z,19.80
2018-09-05T06:04:48.860Z,25.10
2018-09-05T06:07:20.011Z,15.83
2018-09-05T06:09:51.237Z,8.67
2018-09-05T06:12:21.868Z,28.33
2018-09-05T06:14:52.527Z,16.40
2018-09-05T06:17:23.072Z,20.50
2018-09-05T06:19:53.531Z,36.30
2018-09-05T06:22:24.257Z,8.03
2018-09-05T06:24:55.091Z,8.37
2018-09-05T06:27:26.140Z,11.13
2018-09-05T06:29:56.635Z,10.30
2018-09-05T06:32:27.011Z,5.77
2018-09-05T06:34:57.752Z,12.70
2018-09-05T06:37:28.273Z,6.07
2018-09-05T06:39:59.747Z,6.20
2018-09-05T06:42:30.432Z,6.23
2018-09-05T06:45:01.050Z,17.27
2018-09-05T06:47:31.464Z,6.13
2018-09-05T06:50:02.174Z,9.77
2018-09-05T06:52:32.723Z,15.83
2018-09-05T06:55:04.032Z,9.10
2018-09-05T06:57:34.851Z,4.67
2018-09-05T07:00:05.521Z,4.80
2018-09-05T07:02:36.270Z,6.77
2018-09-05T07:05:07.291Z,5.07
2018-09-05T07:07:38.021Z,4.93
2018-09-05T07:10:08.779Z,4.97
2018-09-05T07:12:39.623Z,5.50
2018-09-05T07:15:10.478Z,5.63
2018-09-05T07:17:43.166Z,6.00
2018-09-05T07:20:14.039Z,5.70
2018-09-05T07:22:45.112Z,5.73
2018-09-05T07:25:15.898Z,6.27
2018-09-05T07:27:47.401Z,5.63
2018-09-05T07:30:18.603Z,5.53
2018-09-05T07:32:49.574Z,5.97
2018-09-05T07:35:20.178Z,5.77
2018-09-05T07:37:52.735Z,8.23
2018-09-05T07:40:27.240Z,5.90
2018-09-05T07:42:57.699Z,5.80
2018-09-05T07:45:28.496Z,5.97
2018-09-05T07:47:59.099Z,6.83
2018-09-05T07:50:30.354Z,7.03
2018-09-05T07:53:02.227Z,8.43
2018-09-05T07:55:33.306Z,8.07
2018-09-05T07:58:03.745Z,7.47
2018-09-05T08:00:34.330Z,7.30
2018-09-05T08:03:04.977Z,7.20
2018-09-05T08:05:35.711Z,7.03
2018-09-05T08:08:06.454Z,6.23
2018-09-05T08:10:37.026Z,5.57
2018-09-05T08:13:07.589Z,5.50
2018-09-05T08:15:38.694Z,6.00
2018-09-05T08:18:09.745Z,4.93
2018-09-05T08:20:40.655Z,4.13
2018-09-05T08:23:11.259Z,5.17
2018-09-05T08:25:42.001Z,4.67
2018-09-05T08:28:13.296Z,5.33
2018-09-05T08:30:44.122Z,5.67
2018-09-05T08:33:15.353Z,4.90
2018-09-05T08:35:46.262Z,17.50
2018-09-05T08:38:16.698Z,5.83
2018-09-05T08:40:47.446Z,4.53
2018-09-05T08:43:17.941Z,4.70
2018-09-05T08:45:48.996Z,4.83
2018-09-05T08:48:20.579Z,5.47
2018-09-05T08:50:52.531Z,3.87
2018-09-05T08:53:25.923Z,3.97
2018-09-05T08:55:57.910Z,4.10
2018-09-05T08:58:29.862Z,5.47
2018-09-05T09:01:00.525Z,5.37
2018-09-05T09:03:31.210Z,5.70
2018-09-05T09:06:01.767Z,3.30
2018-09-05T09:08:32.346Z,3.67
2018-09-05T09:11:02.976Z,3.70
2018-09-05T09:13:33.607Z,3.70
2018-09-05T09:16:04.316Z,4.70
2018-09-05T09:18:35.188Z,8.07
2018-09-05T09:21:06.359Z,3.70
2018-09-05T09:23:37.283Z,3.30
2018-09-05T09:26:08.828Z,7.17
2018-09-05T09:28:39.415Z,3.20
2018-09-05T09:31:10.599Z,3.20
2018-09-05T09:33:41.111Z,2.97
2018-09-05T09:36:11.766Z,3.20
2018-09-05T09:38:42.450Z,3.57
2018-09-05T09:41:13.142Z,3.37
2018-09-05T09:43:44.832Z,8.10
2018-09-05T09:46:15.687Z,4.17
2018-09-05T09:48:46.276Z,4.30
2018-09-05T09:51:17.204Z,3.70
2018-09-05T09:53:47.754Z,3.95
2018-09-05T09:56:18.570Z,4.40
2018-09-05T09:58:49.250Z,4.12
2018-09-05T10:01:27.067Z,3.92
2018-09-05T10:04:08.134Z,3.70
2018-09-05T10:06:50.473Z,3.92
2018-09-05T10:09:26.263Z,6.62
2018-09-05T10:12:01.841Z,3.98
2018-09-05T10:14:32.629Z,4.37
2018-09-05T10:17:08.364Z,4.28
2018-09-05T10:19:38.969Z,4.97
2018-09-05T10:22:09.441Z,4.37
2018-09-05T10:24:40.004Z,5.03
2018-09-05T10:27:10.524Z,4.00
2018-09-05T10:29:41.519Z,4.10
2018-09-05T10:32:12.197Z,3.75
2018-09-05T10:34:42.951Z,3.72
2018-09-05T10:37:14.708Z,3.70
2018-09-05T10:39:45.269Z,3.40
2018-09-05T10:42:18.907Z,3.80
2018-09-05T10:44:49.636Z,5.83
2018-09-05T10:47:20.997Z,5.67
2018-09-05T10:49:51.510Z,3.98
2018-09-05T10:52:22.129Z,3.70
2018-09-05T10:54:52.625Z,3.42
2018-09-05T10:57:23.350Z,26.40
2018-09-05T10:59:53.934Z,4.45
2018-09-05T11:02:24.488Z,6.87
2018-09-05T11:04:54.955Z,3.55
2018-09-05T11:07:25.502Z,4.30
2018-09-05T11:09:56.632Z,3.47
2018-09-05T11:12:27.796Z,4.58
2018-09-05T11:14:59.213Z,5.33
2018-09-05T11:17:36.064Z,22.40
2018-09-05T11:20:09.683Z,6.35
2018-09-05T11:22:45.933Z,5.30
2018-09-05T11:25:17.810Z,5.13
2018-09-05T11:27:49.112Z,4.05
2018-09-05T11:30:20.535Z,4.00
2018-09-05T11:32:51.611Z,5.92
2018-09-05T11:35:22.287Z,5.12
2018-09-05T11:37:53.365Z,4.45
2018-09-05T11:40:24.901Z,4.17
2018-09-05T11:42:55.810Z,4.87
2018-09-05T11:45:26.805Z,4.62
2018-09-05T11:47:57.896Z,3.75
2018-09-05T11:50:30.101Z,4.10
2018-09-05T11:53:02.772Z,4.20
2018-09-05T11:55:34.363Z,4.05
2018-09-05T11:58:05.292Z,4.08
2018-09-05T12:00:36.143Z,3.62
2018-09-05T12:03:06.934Z,3.75
2018-09-05T12:05:37.545Z,3.98
2018-09-05T12:08:08.330Z,3.87
2018-09-05T12:10:39.114Z,4.10
2018-09-05T12:13:09.878Z,4.10
2018-09-05T12:15:41.206Z,5.80
2018-09-05T12:18:13.003Z,4.33
2018-09-05T12:20:43.867Z,4.28
2018-09-05T12:23:17.632Z,4.47
2018-09-05T12:25:48.229Z,3.95
2018-09-05T12:28:19.071Z,4.20
2018-09-05T12:30:49.716Z,4.00
2018-09-05T12:33:20.239Z,4.03
2018-09-05T12:35:50.803Z,4.28
2018-09-05T12:38:21.436Z,7.35
2018-09-05T12:40:51.943Z,5.17
2018-09-05T12:43:25.728Z,4.00
2018-09-05T12:45:56.799Z,5.05
2018-09-05T12:48:28.254Z,7.40
2018-09-05T12:50:59.018Z,5.45
2018-09-05T12:53:29.863Z,4.37
2018-09-05T12:56:01.587Z,5.85
2018-09-05T12:58:32.972Z,4.30
2018-09-05T13:01:05.039Z,4.37
2018-09-05T13:03:41.555Z,4.75
2018-09-05T13:06:12.066Z,4.15
2018-09-05T13:08:43.441Z,4.37
2018-09-05T13:11:15.692Z,4.12
2018-09-05T13:13:46.754Z,10.10
2018-09-05T13:16:18.519Z,7.67
2018-09-05T13:18:49.431Z,5.30
2018-09-05T13:21:20.240Z,6.50
2018-09-05T13:23:54.480Z,4.22
2018-09-05T13:26:28.005Z,3.85
2018-09-05T13:28:59.311Z,4.23
2018-09-05T13:31:30.497Z,5.60
2018-09-05T13:34:01.952Z,4.20
2018-09-05T13:36:34.779Z,4.28
2018-09-05T13:39:08.567Z,5.20
2018-09-05T13:41:39.676Z,4.92
2018-09-05T13:44:10.844Z,3.65
2018-09-05T13:46:42.161Z,4.15
2018-09-05T13:49:14.220Z,4.35
2018-09-05T13:51:48.781Z,5.28
2018-09-05T13:54:19.731Z,4.08
2018-09-05T13:56:50.761Z,3.90
2018-09-05T13:59:21.366Z,4.05
2018-09-05T14:01:52.166Z,4.78
2018-09-05T14:04:22.761Z,5.10
2018-09-05T14:06:53.529Z,4.80
2018-09-05T14:09:24.760Z,3.97
2018-09-05T14:11:55.979Z,4.37
2018-09-05T14:14:28.148Z,3.73
2018-09-05T14:16:59.649Z,3.97
2018-09-05T14:19:30.367Z,4.10
2018-09-05T14:22:01.240Z,4.20
2018-09-05T14:24:32.703Z,5.03
2018-09-05T14:27:03.336Z,4.90
2018-09-05T14:29:34.325Z,4.00
2018-09-05T14:32:06.683Z,5.57
2018-09-05T14:34:37.254Z,6.67
2018-09-05T14:37:08.448Z,5.50
2018-09-05T14:39:39.502Z,8.83
2018-09-05T14:42:10.651Z,4.93
2018-09-05T14:44:42.507Z,4.37
2018-09-05T14:47:14.116Z,5.53
2018-09-05T14:49:45.599Z,3.70
2018-09-05T14:52:16.674Z,4.57
2018-09-05T14:54:47.441Z,5.73
2018-09-05T14:57:18.792Z,3.80
2018-09-05T14:59:49.523Z,3.83
2018-09-05T15:02:21.214Z,4.80
2018-09-05T15:04:52.169Z,8.13
2018-09-05T15:07:23.075Z,4.50
2018-09-05T15:09:53.839Z,3.70
2018-09-05T15:12:24.586Z,5.70
2018-09-05T15:14:55.396Z,6.77
2018-09-05T15:17:26.097Z,4.40
2018-09-05T15:19:58.882Z,4.10
2018-09-05T15:22:29.925Z,5.33
2018-09-05T15:25:02.150Z,4.00
2018-09-05T15:27:34.267Z,11.13
2018-09-05T15:30:07.670Z,5.23
2018-09-05T15:32:39.793Z,4.57
2018-09-05T15:35:11.838Z,4.37
2018-09-05T15:37:42.527Z,5.80
2018-09-05T15:40:13.340Z,6.27
2018-09-05T15:42:44.702Z,8.90
2018-09-05T15:45:15.555Z,6.70
2018-09-05T15:47:46.632Z,6.50
2018-09-05T15:50:17.466Z,8.57
2018-09-05T15:52:48.210Z,4.50
2018-09-05T15:55:18.991Z,8.27
2018-09-05T15:57:50.308Z,10.73
2018-09-05T16:00:21.288Z,5.50
2018-09-05T16:02:52.240Z,8.10
2018-09-05T16:05:24.055Z,8.73
2018-09-05T16:07:59.037Z,11.33
2018-09-05T16:10:32.558Z,14.60
2018-09-05T16:13:03.338Z,17.83
2018-09-05T16:15:34.936Z,17.43
2018-09-05T16:18:05.623Z,13.73
2018-09-05T16:20:37.592Z,7.90
2018-09-05T16:23:09.040Z,7.53
2018-09-05T16:25:40.525Z,9.00
2018-09-05T16:28:13.592Z,6.20
2018-09-05T16:30:46.794Z,8.90
2018-09-05T16:33:20.256Z,25.67
2018-09-05T16:35:53.360Z,72.07
2018-09-05T16:38:24.383Z,24.57
2018-09-05T16:40:55.246Z,9.43
2018-09-05T16:43:26.298Z,6.57
2018-09-05T16:45:57.208Z,6.77
2018-09-05T16:48:29.995Z,7.20
2018-09-05T16:51:04.922Z,5.20
2018-09-05T16:53:37.717Z,5.63
2018-09-05T16:56:09.763Z,7.00
2018-09-05T16:58:40.916Z,6.73
2018-09-05T17:01:12.152Z,5.33
2018-09-05T17:03:45.141Z,4.13
2018-09-05T17:06:18.001Z,4.73
2018-09-05T17:08:50.230Z,5.43
2018-09-05T17:11:21.030Z,5.90
2018-09-05T17:13:52.428Z,8.10
2018-09-05T17:16:24.226Z,6.00
2018-09-05T17:18:55.429Z,5.67
2018-09-05T17:21:26.785Z,4.70
2018-09-05T17:23:58.399Z,4.73
2018-09-05T17:26:30.187Z,6.73
2018-09-05T17:29:01.021Z,5.20
2018-09-05T17:31:32.551Z,5.70
2018-09-05T17:34:04.697Z,6.87
2018-09-05T17:36:36.710Z,6.03
2018-09-05T17:39:11.422Z,5.93
2018-09-05T17:41:42.814Z,6.53
2018-09-05T17:44:14.229Z,5.17
2018-09-05T17:46:45.624Z,9.60
2018-09-05T17:49:19.382Z,6.27
2018-09-05T17:51:51.551Z,8.50
2018-09-05T17:54:22.649Z,4.53
2018-09-05T17:56:55.116Z,8.20
2018-09-05T17:59:26.882Z,9.33
2018-09-05T18:01:58.610Z,11.87
2018-09-05T18:04:30.359Z,8.07
2018-09-05T18:07:02.951Z,4.23
2018-09-05T18:09:35.671Z,5.73
2018-09-05T18:12:07.835Z,6.73
2018-09-05T18:14:42.437Z,9.43
2018-09-05T18:17:15.620Z,5.77
2018-09-05T18:19:47.304Z,4.73
2018-09-05T18:22:19.315Z,4.23
2018-09-05T18:24:51.085Z,4.83
2018-09-05T18:27:22.982Z,5.30
2018-09-05T18:29:54.663Z,6.80
2018-09-05T18:32:26.533Z,5.20
2018-09-05T18:34:58.778Z,4.87
2018-09-05T18:37:31.247Z,5.43
2018-09-05T18:40:03.593Z,6.77
2018-09-05T18:42:35.619Z,4.37
2018-09-05T18:45:08.606Z,4.70
2018-09-05T18:47:40.847Z,4.63
2018-09-05T18:50:12.994Z,6.67
2018-09-05T18:52:45.698Z,5.40
2018-09-05T18:55:18.754Z,5.93
2018-09-05T18:57:50.789Z,4.70
2018-09-05T19:00:23.608Z,6.13
2018-09-05T19:02:55.784Z,5.23
2018-09-05T19:05:29.271Z,6.40
2018-09-05T19:08:01.972Z,7.30
2018-09-05T19:10:37.694Z,6.27
2018-09-05T19:13:13.434Z,5.67
2018-09-05T19:15:51.437Z,5.43
2018-09-05T19:18:25.301Z,6.37
2018-09-05T19:20:57.459Z,6.37
2018-09-05T19:23:29.450Z,7.83
2018-09-05T19:26:01.886Z,4.63
2018-09-05T19:28:33.990Z,5.40
2018-09-05T19:31:06.022Z,6.07
2018-09-05T19:33:39.525Z,5.27
2018-09-05T19:36:12.849Z,7.00
2018-09-05T19:38:44.529Z,5.77
2018-09-05T19:41:16.953Z,5.33
2018-09-05T19:43:48.955Z,6.87
2018-09-05T19:46:22.474Z,5.57
2018-09-05T19:48:54.836Z,6.17
2018-09-05T19:51:26.741Z,4.90
2018-09-05T19:53:59.826Z,5.83
2018-09-05T19:56:34.528Z,6.00
2018-09-05T19:59:08.176Z,5.43
2018-09-05T20:01:45.105Z,7.13
2018-09-05T20:04:19.888Z,6.03
2018-09-05T20:06:57.765Z,5.80
2018-09-05T20:09:33.428Z,6.30
2018-09-05T20:12:07.993Z,6.50
2018-09-05T20:14:44.473Z,4.90
2018-09-05T20:17:17.514Z,7.70
2018-09-05T20:19:55.445Z,6.30
2018-09-05T20:22:33.568Z,5.10
2018-09-05T20:25:22.063Z,7.37
2018-09-05T20:27:55.112Z,6.40
2018-09-05T20:30:27.180Z,7.33
2018-09-05T20:32:59.117Z,5.40
2018-09-05T20:35:31.527Z,6.50
2018-09-05T20:38:03.456Z,6.87
2018-09-05T20:40:35.658Z,6.73
2018-09-05T20:43:07.372Z,7.90
2018-09-05T20:45:39.049Z,4.90
2018-09-05T20:48:11.700Z,5.67
2018-09-05T20:50:43.705Z,6.87
2018-09-05T20:53:16.467Z,5.47
2018-09-05T20:55:48.478Z,8.43
2018-09-05T20:58:21.195Z,4.73
2018-09-05T21:00:53.448Z,8.53
2018-09-05T21:03:26.518Z,7.30
2018-09-05T21:05:59.077Z,8.60
2018-09-05T21:08:30.970Z,7.33
2018-09-05T21:11:02.681Z,6.97
2018-09-05T21:13:35.196Z,5.23
2018-09-05T21:16:08.376Z,5.13
2018-09-05T21:18:40.391Z,6.00
2018-09-05T21:21:12.693Z,8.50
2018-09-05T21:23:44.036Z,5.67
2018-09-05T21:26:15.613Z,8.23
2018-09-05T21:28:46.494Z,5.87
2018-09-05T21:31:17.494Z,5.70
2018-09-05T21:33:48.568Z,9.47
2018-09-05T21:36:19.604Z,6.13
2018-09-05T21:38:50.312Z,7.00
2018-09-05T21:41:20.910Z,8.10
2018-09-05T21:43:51.625Z,6.20
2018-09-05T21:46:22.614Z,6.93
2018-09-05T21:48:53.446Z,14.00
2018-09-05T21:51:24.055Z,7.10
2018-09-05T21:53:54.600Z,11.63
2018-09-05T21:56:25.117Z,7.10
2018-09-05T21:58:55.673Z,11.20
2018-09-05T22:01:26.232Z,6.63
2018-09-05T22:03:56.946Z,6.73
2018-09-05T22:06:27.536Z,9.77
2018-09-05T22:08:58.343Z,8.40
2018-09-05T22:11:28.834Z,6.23
2018-09-05T22:13:59.873Z,6.50
2018-09-05T22:16:30.927Z,7.57
2018-09-05T22:19:02.156Z,7.27
2018-09-05T22:21:32.681Z,6.07
2018-09-05T22:24:03.550Z,5.73
2018-09-05T22:26:34.052Z,9.57
2018-09-05T22:29:04.659Z,7.57
2018-09-05T22:31:35.372Z,7.90
2018-09-05T22:34:06.228Z,8.70
2018-09-05T22:36:36.726Z,9.23
2018-09-05T22:39:09.458Z,8.93
2018-09-05T22:41:40.003Z,10.60
2018-09-05T22:44:27.048Z,8.70
2018-09-05T22:47:14.827Z,9.93
2018-09-05T22:50:07.709Z,6.97
2018-09-05T22:56:00.521Z,8.30
2018-09-05T23:00:54.389Z,5.43
2018-09-05T23:04:49.061Z,5.90
2018-09-05T23:07:35.095Z,6.60
2018-09-05T23:10:21.872Z,5.50
2018-09-05T23:13:08.714Z,7.00
2018-09-05T23:15:55.493Z,8.47
2018-09-05T23:18:47.975Z,8.93
2018-09-05T23:21:21.312Z,13.60
2018-09-05T23:24:11.268Z,6.63
2018-09-05T23:26:42.380Z,6.57
2018-09-05T23:29:12.841Z,8.93
2018-09-05T23:31:43.390Z,7.00
2018-09-05T23:34:13.805Z,6.03
2018-09-05T23:36:44.313Z,6.60
2018-09-05T23:39:14.665Z,9.50
2018-09-05T23:41:45.170Z,8.97
2018-09-05T23:44:15.695Z,7.37
2018-09-05T23:46:46.141Z,6.13
2018-09-05T23:49:16.517Z,6.50
2018-09-05T23:51:47.021Z,6.00
2018-09-05T23:54:17.400Z,6.63
2018-09-05T23:56:47.928Z,5.97
2018-09-05T23:59:19.050Z,8.70
